sensor_id;sensor_type;location;lat;lon;timestamp;P1;durP1;ratioP1;P2;durP2;ratioP2
18316;SDS011;9284;52.298;21.164;2023-04-03T03:12:38;3.90;;;1.23;;
18316;SDS011;9284;52.298;21.164;2023-04-03T03:15:07;4.13;;;1.20;;
18316;SDS011;9284;52.298;21.164;2023-04-03T03:17:37;3.20;;;0.80;;
18316;SDS011;9284;52.298;21.164;2023-04-03T03:20:12;2.63;;;0.90;;
18316;SDS011;9284;52.298;21.164;2023-04-03T03:22:41;1.47;;;0.90;;
18316;SDS011;9284;52.298;21.164;2023-04-03T03:25:10;4.70;;;1.30;;
18316;SDS011;9284;52.298;21.164;2023-04-03T03:27:39;2.37;;;1.30;;
18316;SDS011;9284;52.298;21.164;2023-04-03T03:30:08;2.23;;;1.07;;
18316;SDS011;9284;52.298;21.164;2023-04-03T03:32:37;4.27;;;1.20;;
18316;SDS011;9284;52.298;21.164;2023-04-03T03:35:06;2.73;;;1.00;;
18316;SDS011;9284;52.298;21.164;2023-04-03T03:37:37;2.43;;;1.10;;
18316;SDS011;9284;52.298;21.164;2023-04-03T03:40:06;2.83;;;1.20;;
18316;SDS011;9284;52.298;21.164;2023-04-03T03:42:36;3.70;;;1.37;;
18316;SDS011;9284;52.298;21.164;2023-04-03T03:45:07;1.67;;;1.10;;
18316;SDS011;9284;52.298;21.164;2023-04-03T03:47:36;2.50;;;1.10;;
18316;SDS011;9284;52.298;21.164;2023-04-03T03:50:05;4.27;;;1.37;;
18316;SDS011;9284;52.298;21.164;2023-04-03T03:52:34;2.80;;;1.33;;
18316;SDS011;9284;52.298;21.164;2023-04-03T03:55:03;3.50;;;1.40;;
18316;SDS011;9284;52.298;21.164;2023-04-03T03:57:34;2.27;;;1.27;;
18316;SDS011;9284;52.298;21.164;2023-04-03T04:00:06;5.53;;;1.40;;
18316;SDS011;9284;52.298;21.164;2023-04-03T04:02:40;3.33;;;1.20;;
18316;SDS011;9284;52.298;21.164;2023-04-03T04:05:13;2.17;;;1.10;;
18316;SDS011;9284;52.298;21.164;2023-04-03T04:07:42;3.53;;;1.40;;
18316;SDS011;9284;52.298;21.164;2023-04-03T04:10:10;2.57;;;1.27;;
18316;SDS011;9284;52.298;21.164;2023-04-03T04:12:41;2.20;;;1.13;;
18316;SDS011;9284;52.298;21.164;2023-04-03T04:15:11;3.30;;;1.10;;
18316;SDS011;9284;52.298;21.164;2023-04-03T04:17:40;3.43;;;1.50;;
18316;SDS011;9284;52.298;21.164;2023-04-03T04:20:11;3.23;;;1.13;;
18316;SDS011;9284;52.298;21.164;2023-04-03T04:22:40;5.23;;;1.57;;
18316;SDS011;9284;52.298;21.164;2023-04-03T04:25:09;4.90;;;1.30;;
18316;SDS011;9284;52.298;21.164;2023-04-03T04:27:38;1.73;;;1.00;;
18316;SDS011;9284;52.298;21.164;2023-04-03T04:30:08;2.93;;;1.40;;
18316;SDS011;9284;52.298;21.164;2023-04-03T04:32:38;3.87;;;1.53;;
18316;SDS011;9284;52.298;21.164;2023-04-03T04:35:07;5.57;;;1.53;;
18316;SDS011;9284;52.298;21.164;2023-04-03T04:37:40;5.33;;;1.27;;
18316;SDS011;9284;52.298;21.164;2023-04-03T04:40:08;2.37;;;1.27;;
18316;SDS011;9284;52.298;21.164;2023-04-03T04:42:38;2.33;;;1.13;;
18316;SDS011;9284;52.298;21.164;2023-04-03T04:45:06;4.27;;;1.27;;
18316;SDS011;9284;52.298;21.164;2023-04-03T04:47:39;3.53;;;1.30;;
18316;SDS011;9284;52.298;21.164;2023-04-03T04:50:09;2.80;;;1.00;;
18316;SDS011;9284;52.298;21.164;2023-04-03T04:52:38;4.70;;;1.20;;
18316;SDS011;9284;52.298;21.164;2023-04-03T04:55:08;5.33;;;1.43;;
18316;SDS011;9284;52.298;21.164;2023-04-03T04:57:36;2.07;;;1.27;;
18316;SDS011;9284;52.298;21.164;2023-04-03T05:00:06;3.00;;;1.50;;
18316;SDS011;9284;52.298;21.164;2023-04-03T05:02:36;4.13;;;1.77;;
18316;SDS011;9284;52.298;21.164;2023-04-03T05:05:06;2.77;;;1.47;;
18316;SDS011;9284;52.298;21.164;2023-04-03T05:07:36;4.77;;;1.93;;
18316;SDS011;9284;52.298;21.164;2023-04-03T05:10:05;5.80;;;2.07;;
18316;SDS011;9284;52.298;21.164;2023-04-03T05:12:35;2.97;;;1.50;;
18316;SDS011;9284;52.298;21.164;2023-04-03T05:15:04;4.53;;;1.73;;
18316;SDS011;9284;52.298;21.164;2023-04-03T05:17:34;4.57;;;1.97;;
18316;SDS011;9284;52.298;21.164;2023-04-03T05:20:06;5.33;;;1.50;;
18316;SDS011;9284;52.298;21.164;2023-04-03T05:22:36;5.23;;;1.60;;
18316;SDS011;9284;52.298;21.164;2023-04-03T05:25:08;2.43;;;1.30;;
18316;SDS011;9284;52.298;21.164;2023-04-03T05:27:39;2.77;;;1.40;;
18316;SDS011;9284;52.298;21.164;2023-04-03T05:30:07;2.83;;;1.17;;
18316;SDS011;9284;52.298;21.164;2023-04-03T05:32:38;2.50;;;1.60;;
18316;SDS011;9284;52.298;21.164;2023-04-03T05:35:21;4.73;;;1.60;;
18316;SDS011;9284;52.298;21.164;2023-04-03T05:37:54;1.53;;;1.10;;
18316;SDS011;9284;52.298;21.164;2023-04-03T05:40:24;6.27;;;1.73;;
18316;SDS011;9284;52.298;21.164;2023-04-03T05:42:55;2.93;;;1.50;;
18316;SDS011;9284;52.298;21.164;2023-04-03T05:45:25;2.20;;;1.20;;
18316;SDS011;9284;52.298;21.164;2023-04-03T05:47:56;2.80;;;1.47;;
18316;SDS011;9284;52.298;21.164;2023-04-03T05:50:26;3.80;;;1.63;;
18316;SDS011;9284;52.298;21.164;2023-04-03T05:52:55;3.50;;;1.67;;
18316;SDS011;9284;52.298;21.164;2023-04-03T05:55:28;3.47;;;1.57;;
18316;SDS011;9284;52.298;21.164;2023-04-03T05:57:56;3.80;;;1.57;;
18316;SDS011;9284;52.298;21.164;2023-04-03T06:00:24;3.87;;;1.67;;
18316;SDS011;9284;52.298;21.164;2023-04-03T06:03:00;6.13;;;1.97;;
18316;SDS011;9284;52.298;21.164;2023-04-03T06:05:30;3.20;;;1.50;;
18316;SDS011;9284;52.298;21.164;2023-04-03T06:07:58;1.93;;;1.40;;
18316;SDS011;9284;52.298;21.164;2023-04-03T06:10:26;2.77;;;1.50;;
18316;SDS011;9284;52.298;21.164;2023-04-03T06:12:55;4.97;;;1.30;;
18316;SDS011;9284;52.298;21.164;2023-04-03T06:15:23;2.03;;;1.10;;
18316;SDS011;9284;52.298;21.164;2023-04-03T06:17:51;2.73;;;1.30;;
18316;SDS011;9284;52.298;21.164;2023-04-03T06:20:20;3.85;;;1.30;;
18316;SDS011;9284;52.298;21.164;2023-04-03T06:22:50;2.97;;;1.38;;
18316;SDS011;9284;52.298;21.164;2023-04-03T06:25:18;2.50;;;1.50;;
18316;SDS011;9284;52.298;21.164;2023-04-03T06:27:47;3.03;;;1.60;;
18316;SDS011;9284;52.298;21.164;2023-04-03T06:30:16;5.15;;;1.50;;
18316;SDS011;9284;52.298;21.164;2023-04-03T06:32:44;2.97;;;1.38;;
18316;SDS011;9284;52.298;21.164;2023-04-03T06:35:12;3.03;;;1.70;;
18316;SDS011;9284;52.298;21.164;2023-04-03T06:37:41;5.18;;;1.50;;
18316;SDS011;9284;52.298;21.164;2023-04-03T06:40:12;2.45;;;1.48;;
18316;SDS011;9284;52.298;21.164;2023-04-03T06:42:45;4.28;;;1.77;;
18316;SDS011;9284;52.298;21.164;2023-04-03T06:45:16;2.80;;;1.60;;
18316;SDS011;9284;52.298;21.164;2023-04-03T06:47:45;3.25;;;1.90;;
18316;SDS011;9284;52.298;21.164;2023-04-03T06:50:14;4.95;;;1.77;;
18316;SDS011;9284;52.298;21.164;2023-04-03T06:52:42;6.45;;;1.92;;
18316;SDS011;9284;52.298;21.164;2023-04-03T06:55:12;2.88;;;1.70;;
18316;SDS011;9284;52.298;21.164;2023-04-03T06:57:40;5.35;;;1.88;;
18316;SDS011;9284;52.298;21.164;2023-04-03T07:00:10;4.07;;;1.95;;
18316;SDS011;9284;52.298;21.164;2023-04-03T07:02:39;4.25;;;2.25;;
18316;SDS011;9284;52.298;21.164;2023-04-03T07:05:08;5.00;;;2.38;;
18316;SDS011;9284;52.298;21.164;2023-04-03T07:07:37;4.43;;;2.22;;
18316;SDS011;9284;52.298;21.164;2023-04-03T07:10:06;5.10;;;1.90;;
18316;SDS011;9284;52.298;21.164;2023-04-03T07:12:37;4.60;;;1.60;;
18316;SDS011;9284;52.298;21.164;2023-04-03T07:15:06;2.85;;;1.35;;
18316;SDS011;9284;52.298;21.164;2023-04-03T07:17:35;4.57;;;1.70;;
18316;SDS011;9284;52.298;21.164;2023-04-03T07:20:04;3.17;;;1.42;;
18316;SDS011;9284;52.298;21.164;2023-04-03T07:22:34;4.47;;;1.77;;
18316;SDS011;9284;52.298;21.164;2023-04-03T07:25:03;2.83;;;1.40;;
18316;SDS011;9284;52.298;21.164;2023-04-03T07:27:33;2.00;;;1.15;;
18316;SDS011;9284;52.298;21.164;2023-04-03T07:30:04;3.20;;;1.52;;
18316;SDS011;9284;52.298;21.164;2023-04-03T07:32:33;2.95;;;1.50;;
18316;SDS011;9284;52.298;21.164;2023-04-03T07:35:01;2.58;;;1.25;;
18316;SDS011;9284;52.298;21.164;2023-04-03T07:37:30;2.53;;;1.40;;
18316;SDS011;9284;52.298;21.164;2023-04-03T07:39:58;3.17;;;1.60;;
18316;SDS011;9284;52.298;21.164;2023-04-03T07:42:30;1.83;;;1.20;;
18316;SDS011;9284;52.298;21.164;2023-04-03T07:44:58;2.45;;;1.40;;
18316;SDS011;9284;52.298;21.164;2023-04-03T07:47:28;1.80;;;1.13;;
18316;SDS011;9284;52.298;21.164;2023-04-03T07:49:57;4.55;;;1.55;;
18316;SDS011;9284;52.298;21.164;2023-04-03T07:52:26;6.15;;;1.38;;
18316;SDS011;9284;52.298;21.164;2023-04-03T07:54:54;2.88;;;1.40;;
18316;SDS011;9284;52.298;21.164;2023-04-03T07:57:22;4.10;;;1.50;;
18316;SDS011;9284;52.298;21.164;2023-04-03T07:59:51;4.97;;;1.55;;
18316;SDS011;9284;52.298;21.164;2023-04-03T08:02:19;3.28;;;1.10;;
18316;SDS011;9284;52.298;21.164;2023-04-03T08:04:49;3.05;;;1.23;;
18316;SDS011;9284;52.298;21.164;2023-04-03T08:07:18;2.40;;;1.30;;
18316;SDS011;9284;52.298;21.164;2023-04-03T08:09:47;4.28;;;1.35;;
18316;SDS011;9284;52.298;21.164;2023-04-03T08:12:16;2.30;;;1.20;;
18316;SDS011;9284;52.298;21.164;2023-04-03T08:14:47;1.55;;;1.02;;
18316;SDS011;9284;52.298;21.164;2023-04-03T08:17:15;1.75;;;1.20;;
18316;SDS011;9284;52.298;21.164;2023-04-03T08:19:43;5.20;;;1.77;;
18316;SDS011;9284;52.298;21.164;2023-04-03T08:22:16;3.30;;;1.20;;
18316;SDS011;9284;52.298;21.164;2023-04-03T08:24:44;3.47;;;1.30;;
18316;SDS011;9284;52.298;21.164;2023-04-03T08:27:24;3.60;;;1.17;;
18316;SDS011;9284;52.298;21.164;2023-04-03T08:29:53;3.28;;;1.15;;
18316;SDS011;9284;52.298;21.164;2023-04-03T08:32:23;1.27;;;0.98;;
18316;SDS011;9284;52.298;21.164;2023-04-03T08:34:52;1.20;;;0.90;;
18316;SDS011;9284;52.298;21.164;2023-04-03T08:37:22;1.90;;;1.70;;
18316;SDS011;9284;52.298;21.164;2023-04-03T08:39:50;2.45;;;1.02;;
18316;SDS011;9284;52.298;21.164;2023-04-03T08:42:23;2.20;;;1.10;;
18316;SDS011;9284;52.298;21.164;2023-04-03T08:45:04;2.30;;;1.10;;
18316;SDS011;9284;52.298;21.164;2023-04-03T08:47:38;3.30;;;1.23;;
18316;SDS011;9284;52.298;21.164;2023-04-03T08:50:11;2.55;;;1.05;;
18316;SDS011;9284;52.298;21.164;2023-04-03T08:52:45;2.58;;;1.17;;
18316;SDS011;9284;52.298;21.164;2023-04-03T08:55:21;2.90;;;0.93;;
18316;SDS011;9284;52.298;21.164;2023-04-03T08:57:53;4.65;;;1.30;;
18316;SDS011;9284;52.298;21.164;2023-04-03T09:00:29;3.60;;;1.38;;
18316;SDS011;9284;52.298;21.164;2023-04-03T09:03:02;3.25;;;1.17;;
18316;SDS011;9284;52.298;21.164;2023-04-03T09:05:39;1.80;;;1.00;;
18316;SDS011;9284;52.298;21.164;2023-04-03T09:08:17;1.63;;;1.20;;
18316;SDS011;9284;52.298;21.164;2023-04-03T09:10:51;4.15;;;1.10;;
18316;SDS011;9284;52.298;21.164;2023-04-03T09:13:24;2.13;;;1.08;;
18316;SDS011;9284;52.298;21.164;2023-04-03T09:15:57;2.88;;;1.20;;
18316;SDS011;9284;52.298;21.164;2023-04-03T09:18:30;2.28;;;1.15;;
18316;SDS011;9284;52.298;21.164;2023-04-03T09:21:08;1.00;;;0.90;;
18316;SDS011;9284;52.298;21.164;2023-04-03T09:23:46;3.38;;;1.40;;
18316;SDS011;9284;52.298;21.164;2023-04-03T09:26:18;3.13;;;1.42;;
18316;SDS011;9284;52.298;21.164;2023-04-03T09:28:53;1.58;;;1.48;;
18316;SDS011;9284;52.298;21.164;2023-04-03T09:31:26;4.78;;;1.20;;
18316;SDS011;9284;52.298;21.164;2023-04-03T09:33:56;2.33;;;1.23;;
18316;SDS011;9284;52.298;21.164;2023-04-03T09:36:42;3.83;;;1.30;;
18316;SDS011;9284;52.298;21.164;2023-04-03T09:39:14;3.40;;;1.15;;
18316;SDS011;9284;52.298;21.164;2023-04-03T09:41:55;2.45;;;1.23;;
18316;SDS011;9284;52.298;21.164;2023-04-03T09:44:26;1.17;;;0.95;;
18316;SDS011;9284;52.298;21.164;2023-04-03T09:46:56;3.38;;;1.20;;
18316;SDS011;9284;52.298;21.164;2023-04-03T09:49:25;2.88;;;1.55;;
18316;SDS011;9284;52.298;21.164;2023-04-03T09:51:53;1.90;;;1.30;;
18316;SDS011;9284;52.298;21.164;2023-04-03T09:54:30;3.00;;;1.35;;
18316;SDS011;9284;52.298;21.164;2023-04-03T09:57:10;2.70;;;1.10;;
18316;SDS011;9284;52.298;21.164;2023-04-03T09:59:42;1.25;;;1.02;;
18316;SDS011;9284;52.298;21.164;2023-04-03T10:02:21;2.20;;;1.35;;
18316;SDS011;9284;52.298;21.164;2023-04-03T10:04:58;2.55;;;1.08;;
18316;SDS011;9284;52.298;21.164;2023-04-03T10:07:36;2.05;;;1.13;;
18316;SDS011;9284;52.298;21.164;2023-04-03T10:10:20;1.40;;;1.10;;
18316;SDS011;9284;52.298;21.164;2023-04-03T10:13:03;2.22;;;1.00;;
18316;SDS011;9284;52.298;21.164;2023-04-03T10:15:36;1.73;;;1.20;;
18316;SDS011;9284;52.298;21.164;2023-04-03T10:18:14;1.90;;;1.00;;
18316;SDS011;9284;52.298;21.164;2023-04-03T10:20:57;1.83;;;1.00;;
18316;SDS011;9284;52.298;21.164;2023-04-03T10:23:38;1.00;;;0.88;;
18316;SDS011;9284;52.298;21.164;2023-04-03T10:26:15;1.95;;;1.13;;
18316;SDS011;9284;52.298;21.164;2023-04-03T10:28:53;2.55;;;1.20;;
18316;SDS011;9284;52.298;21.164;2023-04-03T10:31:29;0.98;;;0.90;;
18316;SDS011;9284;52.298;21.164;2023-04-03T10:34:05;2.13;;;1.00;;
18316;SDS011;9284;52.298;21.164;2023-04-03T10:36:38;1.17;;;0.70;;
18316;SDS011;9284;52.298;21.164;2023-04-03T10:39:17;1.58;;;0.88;;
18316;SDS011;9284;52.298;21.164;2023-04-03T10:41:57;2.92;;;1.13;;
18316;SDS011;9284;52.298;21.164;2023-04-03T10:44:55;0.95;;;0.70;;
18316;SDS011;9284;52.298;21.164;2023-04-03T10:47:44;2.10;;;0.80;;
18316;SDS011;9284;52.298;21.164;2023-04-03T10:50:34;1.92;;;1.00;;
18316;SDS011;9284;52.298;21.164;2023-04-03T10:53:11;0.90;;;0.80;;
18316;SDS011;9284;52.298;21.164;2023-04-03T10:55:46;2.10;;;1.15;;
18316;SDS011;9284;52.298;21.164;2023-04-03T10:58:24;1.92;;;0.88;;
18316;SDS011;9284;52.298;21.164;2023-04-03T11:00:57;1.30;;;1.00;;
18316;SDS011;9284;52.298;21.164;2023-04-03T11:03:34;1.95;;;1.10;;
18316;SDS011;9284;52.298;21.164;2023-04-03T11:06:05;1.83;;;1.00;;
18316;SDS011;9284;52.298;21.164;2023-04-03T11:08:38;2.55;;;1.20;;
18316;SDS011;9284;52.298;21.164;2023-04-03T11:11:12;3.38;;;1.10;;
18316;SDS011;9284;52.298;21.164;2023-04-03T11:13:48;1.60;;;1.05;;
18316;SDS011;9284;52.298;21.164;2023-04-03T11:16:21;2.30;;;1.05;;
18316;SDS011;9284;52.298;21.164;2023-04-03T11:18:52;2.20;;;1.05;;
18316;SDS011;9284;52.298;21.164;2023-04-03T11:21:27;1.70;;;1.08;;
18316;SDS011;9284;52.298;21.164;2023-04-03T11:23:59;1.83;;;1.02;;
18316;SDS011;9284;52.298;21.164;2023-04-03T11:26:35;6.43;;;1.50;;
18316;SDS011;9284;52.298;21.164;2023-04-03T11:29:09;2.92;;;1.20;;
18316;SDS011;9284;52.298;21.164;2023-04-03T11:32:11;1.42;;;1.10;;
18316;SDS011;9284;52.298;21.164;2023-04-03T11:34:54;1.38;;;0.90;;
18316;SDS011;9284;52.298;21.164;2023-04-03T11:37:27;3.63;;;1.00;;
18316;SDS011;9284;52.298;21.164;2023-04-03T11:40:04;3.25;;;1.02;;
18316;SDS011;9284;52.298;21.164;2023-04-03T11:42:36;2.05;;;0.90;;
18316;SDS011;9284;52.298;21.164;2023-04-03T11:45:17;1.10;;;0.80;;
18316;SDS011;9284;52.298;21.164;2023-04-03T11:47:59;2.40;;;1.00;;
18316;SDS011;9284;52.298;21.164;2023-04-03T11:50:49;2.10;;;0.95;;
18316;SDS011;9284;52.298;21.164;2023-04-03T11:53:34;1.15;;;1.00;;
18316;SDS011;9284;52.298;21.164;2023-04-03T11:56:04;4.10;;;1.10;;
18316;SDS011;9284;52.298;21.164;2023-04-03T12:01:51;1.88;;;1.00;;
18316;SDS011;9284;52.298;21.164;2023-04-03T12:04:22;2.15;;;1.10;;
18316;SDS011;9284;52.298;21.164;2023-04-03T12:07:01;3.67;;;0.90;;
18316;SDS011;9284;52.298;21.164;2023-04-03T12:12:57;1.88;;;1.20;;
18316;SDS011;9284;52.298;21.164;2023-04-03T12:24:26;10.95;;;5.28;;
18316;SDS011;9284;52.298;21.164;2023-04-03T12:27:04;4.63;;;2.00;;
18316;SDS011;9284;52.298;21.164;2023-04-03T12:29:50;2.33;;;1.33;;
18316;SDS011;9284;52.298;21.164;2023-04-03T12:32:34;0.93;;;0.80;;
18316;SDS011;9284;52.298;21.164;2023-04-03T12:35:24;4.78;;;1.20;;
18316;SDS011;9284;52.298;21.164;2023-04-03T12:40:50;1.58;;;1.05;;
18316;SDS011;9284;52.298;21.164;2023-04-03T12:46:14;2.28;;;1.00;;
18316;SDS011;9284;52.298;21.164;2023-04-03T12:48:47;2.88;;;1.00;;
18316;SDS011;9284;52.298;21.164;2023-04-03T12:51:19;2.08;;;1.05;;
18316;SDS011;9284;52.298;21.164;2023-04-03T12:53:52;1.15;;;0.90;;
18316;SDS011;9284;52.298;21.164;2023-04-03T12:56:28;1.20;;;0.80;;
18316;SDS011;9284;52.298;21.164;2023-04-03T12:59:12;3.50;;;1.02;;
18316;SDS011;9284;52.298;21.164;2023-04-03T13:01:42;2.58;;;1.33;;
18316;SDS011;9284;52.298;21.164;2023-04-03T13:04:11;1.67;;;1.10;;
18316;SDS011;9284;52.298;21.164;2023-04-03T13:06:41;1.45;;;0.88;;
18316;SDS011;9284;52.298;21.164;2023-04-03T13:09:19;1.48;;;1.00;;
18316;SDS011;9284;52.298;21.164;2023-04-03T13:11:49;2.13;;;0.90;;
18316;SDS011;9284;52.298;21.164;2023-04-03T13:14:21;4.00;;;1.10;;
18316;SDS011;9284;52.298;21.164;2023-04-03T13:16:55;1.58;;;1.00;;
18316;SDS011;9284;52.298;21.164;2023-04-03T13:19:25;3.67;;;1.48;;
18316;SDS011;9284;52.298;21.164;2023-04-03T13:21:58;2.97;;;1.20;;
18316;SDS011;9284;52.298;21.164;2023-04-03T13:24:30;2.30;;;1.25;;
18316;SDS011;9284;52.298;21.164;2023-04-03T13:27:02;2.50;;;1.30;;
18316;SDS011;9284;52.298;21.164;2023-04-03T13:29:32;3.08;;;1.20;;
18316;SDS011;9284;52.298;21.164;2023-04-03T13:32:02;4.18;;;1.33;;
18316;SDS011;9284;52.298;21.164;2023-04-03T13:34:35;1.85;;;1.02;;
18316;SDS011;9284;52.298;21.164;2023-04-03T13:37:06;1.90;;;1.10;;
18316;SDS011;9284;52.298;21.164;2023-04-03T13:39:56;2.75;;;1.13;;
18316;SDS011;9284;52.298;21.164;2023-04-03T13:42:27;2.03;;;1.25;;
18316;SDS011;9284;52.298;21.164;2023-04-03T13:45:11;3.30;;;1.13;;
18316;SDS011;9284;52.298;21.164;2023-04-03T13:47:46;1.58;;;0.95;;
18316;SDS011;9284;52.298;21.164;2023-04-03T13:50:17;2.17;;;1.20;;
18316;SDS011;9284;52.298;21.164;2023-04-03T13:52:50;2.17;;;1.20;;
18316;SDS011;9284;52.298;21.164;2023-04-03T13:55:22;2.42;;;1.30;;
18316;SDS011;9284;52.298;21.164;2023-04-03T13:57:54;4.20;;;1.85;;
18316;SDS011;9284;52.298;21.164;2023-04-03T14:00:33;3.25;;;1.30;;
18316;SDS011;9284;52.298;21.164;2023-04-03T14:03:11;3.03;;;1.35;;
18316;SDS011;9284;52.298;21.164;2023-04-03T14:05:41;2.92;;;1.45;;
18316;SDS011;9284;52.298;21.164;2023-04-03T14:08:13;4.97;;;1.52;;
18316;SDS011;9284;52.298;21.164;2023-04-03T14:10:41;2.28;;;1.00;;
18316;SDS011;9284;52.298;21.164;2023-04-03T14:13:11;1.73;;;1.08;;
18316;SDS011;9284;52.298;21.164;2023-04-03T14:15:41;1.70;;;1.10;;
18316;SDS011;9284;52.298;21.164;2023-04-03T14:18:10;0.95;;;0.88;;
18316;SDS011;9284;52.298;21.164;2023-04-03T14:20:39;5.22;;;1.40;;
18316;SDS011;9284;52.298;21.164;2023-04-03T14:23:08;2.78;;;1.42;;
18316;SDS011;9284;52.298;21.164;2023-04-03T14:25:40;5.18;;;1.40;;
18316;SDS011;9284;52.298;21.164;2023-04-03T14:28:15;5.90;;;1.80;;
18316;SDS011;9284;52.298;21.164;2023-04-03T14:30:46;4.00;;;1.25;;
18316;SDS011;9284;52.298;21.164;2023-04-03T14:33:15;6.25;;;1.40;;
18316;SDS011;9284;52.298;21.164;2023-04-03T14:35:45;1.35;;;1.00;;
18316;SDS011;9284;52.298;21.164;2023-04-03T14:38:20;1.15;;;1.05;;
18316;SDS011;9284;52.298;21.164;2023-04-03T14:40:52;2.75;;;1.30;;
18316;SDS011;9284;52.298;21.164;2023-04-03T14:43:32;1.60;;;1.00;;
18316;SDS011;9284;52.298;21.164;2023-04-03T14:46:00;2.13;;;0.90;;
18316;SDS011;9284;52.298;21.164;2023-04-03T14:48:29;1.27;;;0.90;;
18316;SDS011;9284;52.298;21.164;2023-04-03T14:50:57;2.38;;;1.23;;
18316;SDS011;9284;52.298;21.164;2023-04-03T14:53:31;3.78;;;1.40;;
18316;SDS011;9284;52.298;21.164;2023-04-03T14:56:08;2.83;;;1.50;;
18316;SDS011;9284;52.298;21.164;2023-04-03T14:58:39;1.90;;;1.10;;
18316;SDS011;9284;52.298;21.164;2023-04-03T15:01:09;2.50;;;1.50;;
18316;SDS011;9284;52.298;21.164;2023-04-03T15:03:38;3.80;;;1.27;;
18316;SDS011;9284;52.298;21.164;2023-04-03T15:06:08;2.33;;;1.52;;
18316;SDS011;9284;52.298;21.164;2023-04-03T15:08:37;2.42;;;1.58;;
18316;SDS011;9284;52.298;21.164;2023-04-03T15:11:09;1.52;;;1.05;;
18316;SDS011;9284;52.298;21.164;2023-04-03T15:13:38;3.60;;;1.30;;
18316;SDS011;9284;52.298;21.164;2023-04-03T15:16:11;7.28;;;1.40;;
18316;SDS011;9284;52.298;21.164;2023-04-03T15:18:45;2.70;;;1.55;;
18316;SDS011;9284;52.298;21.164;2023-04-03T15:21:14;4.85;;;1.90;;
18316;SDS011;9284;52.298;21.164;2023-04-03T15:23:43;3.35;;;1.42;;
18316;SDS011;9284;52.298;21.164;2023-04-03T15:26:13;6.53;;;1.60;;
18316;SDS011;9284;52.298;21.164;2023-04-03T15:28:41;4.53;;;1.83;;
18316;SDS011;9284;52.298;21.164;2023-04-03T15:31:10;3.72;;;1.88;;
18316;SDS011;9284;52.298;21.164;2023-04-03T15:33:39;2.40;;;1.60;;
18316;SDS011;9284;52.298;21.164;2023-04-03T15:36:08;2.10;;;1.50;;
18316;SDS011;9284;52.298;21.164;2023-04-03T15:38:56;2.17;;;1.20;;
18316;SDS011;9284;52.298;21.164;2023-04-03T15:41:26;3.10;;;1.30;;
18316;SDS011;9284;52.298;21.164;2023-04-03T15:43:54;1.27;;;0.90;;
18316;SDS011;9284;52.298;21.164;2023-04-03T15:46:23;3.15;;;1.30;;
18316;SDS011;9284;52.298;21.164;2023-04-03T15:48:51;2.50;;;1.50;;
18316;SDS011;9284;52.298;21.164;2023-04-03T15:51:21;2.40;;;1.27;;
18316;SDS011;9284;52.298;21.164;2023-04-03T15:53:49;2.73;;;1.50;;
18316;SDS011;9284;52.298;21.164;2023-04-03T15:56:18;2.58;;;1.10;;
18316;SDS011;9284;52.298;21.164;2023-04-03T15:58:48;3.65;;;1.58;;
18316;SDS011;9284;52.298;21.164;2023-04-03T16:01:17;2.50;;;1.50;;
18316;SDS011;9284;52.298;21.164;2023-04-03T16:03:45;2.87;;;1.40;;
18316;SDS011;9284;52.298;21.164;2023-04-03T16:06:14;5.00;;;2.03;;
18316;SDS011;9284;52.298;21.164;2023-04-03T16:08:44;5.37;;;1.80;;
18316;SDS011;9284;52.298;21.164;2023-04-03T16:11:21;3.80;;;1.60;;
18316;SDS011;9284;52.298;21.164;2023-04-03T16:13:50;3.17;;;1.60;;
18316;SDS011;9284;52.298;21.164;2023-04-03T16:16:19;3.07;;;1.70;;
18316;SDS011;9284;52.298;21.164;2023-04-03T16:18:47;2.80;;;1.50;;
18316;SDS011;9284;52.298;21.164;2023-04-03T16:21:16;2.60;;;1.67;;
18316;SDS011;9284;52.298;21.164;2023-04-03T16:23:47;3.13;;;1.47;;
18316;SDS011;9284;52.298;21.164;2023-04-03T16:26:16;2.40;;;1.67;;
18316;SDS011;9284;52.298;21.164;2023-04-03T16:28:44;2.70;;;1.57;;
18316;SDS011;9284;52.298;21.164;2023-04-03T16:31:14;6.17;;;2.40;;
18316;SDS011;9284;52.298;21.164;2023-04-03T16:33:44;3.67;;;2.30;;
18316;SDS011;9284;52.298;21.164;2023-04-03T16:36:13;4.97;;;3.10;;
18316;SDS011;9284;52.298;21.164;2023-04-03T16:38:41;4.80;;;2.17;;
18316;SDS011;9284;52.298;21.164;2023-04-03T16:41:10;6.80;;;2.50;;
18316;SDS011;9284;52.298;21.164;2023-04-03T16:43:38;5.30;;;2.73;;
18316;SDS011;9284;52.298;21.164;2023-04-03T16:46:06;7.57;;;2.97;;
18316;SDS011;9284;52.298;21.164;2023-04-03T16:48:38;6.70;;;2.90;;
18316;SDS011;9284;52.298;21.164;2023-04-03T16:51:07;4.20;;;2.03;;
18316;SDS011;9284;52.298;21.164;2023-04-03T16:53:36;5.70;;;2.07;;
18316;SDS011;9284;52.298;21.164;2023-04-03T16:56:04;5.33;;;2.43;;
18316;SDS011;9284;52.298;21.164;2023-04-03T16:58:33;7.27;;;2.70;;
18316;SDS011;9284;52.298;21.164;2023-04-03T17:01:08;5.17;;;2.77;;
18316;SDS011;9284;52.298;21.164;2023-04-03T17:03:38;6.30;;;3.00;;
18316;SDS011;9284;52.298;21.164;2023-04-03T17:06:07;6.00;;;3.30;;
18316;SDS011;9284;52.298;21.164;2023-04-03T17:08:41;6.40;;;2.30;;
18316;SDS011;9284;52.298;21.164;2023-04-03T17:11:12;5.90;;;2.53;;
18316;SDS011;9284;52.298;21.164;2023-04-03T17:13:41;3.90;;;2.33;;
18316;SDS011;9284;52.298;21.164;2023-04-03T17:16:10;5.73;;;2.80;;
18316;SDS011;9284;52.298;21.164;2023-04-03T17:18:42;7.97;;;2.80;;
18316;SDS011;9284;52.298;21.164;2023-04-03T17:21:11;6.20;;;2.80;;
18316;SDS011;9284;52.298;21.164;2023-04-03T17:23:42;6.60;;;2.83;;
18316;SDS011;9284;52.298;21.164;2023-04-03T17:26:15;7.40;;;3.03;;
18316;SDS011;9284;52.298;21.164;2023-04-03T17:28:43;6.80;;;3.03;;
18316;SDS011;9284;52.298;21.164;2023-04-03T17:31:12;7.37;;;2.80;;
18316;SDS011;9284;52.298;21.164;2023-04-03T17:33:40;6.47;;;2.93;;
18316;SDS011;9284;52.298;21.164;2023-04-03T17:36:10;8.37;;;2.73;;
18316;SDS011;9284;52.298;21.164;2023-04-03T17:38:39;7.60;;;2.47;;
18316;SDS011;9284;52.298;21.164;2023-04-03T17:41:08;6.77;;;3.10;;
18316;SDS011;9284;52.298;21.164;2023-04-03T17:43:36;8.63;;;3.20;;
18316;SDS011;9284;52.298;21.164;2023-04-03T17:46:05;8.33;;;3.40;;
18316;SDS011;9284;52.298;21.164;2023-04-03T17:48:43;13.93;;;3.37;;
18316;SDS011;9284;52.298;21.164;2023-04-03T17:51:12;10.23;;;4.00;;
18316;SDS011;9284;52.298;21.164;2023-04-03T17:53:42;9.83;;;4.17;;
18316;SDS011;9284;52.298;21.164;2023-04-03T17:56:12;12.53;;;4.43;;
18316;SDS011;9284;52.298;21.164;2023-04-03T17:58:41;10.90;;;4.27;;
18316;SDS011;9284;52.298;21.164;2023-04-03T18:01:11;8.50;;;3.50;;
18316;SDS011;9284;52.298;21.164;2023-04-03T18:03:41;8.50;;;3.70;;
18316;SDS011;9284;52.298;21.164;2023-04-03T18:06:18;8.43;;;3.57;;
18316;SDS011;9284;52.298;21.164;2023-04-03T18:08:49;17.90;;;3.83;;
18316;SDS011;9284;52.298;21.164;2023-04-03T18:11:19;19.87;;;4.37;;
18316;SDS011;9284;52.298;21.164;2023-04-03T18:13:52;11.10;;;4.30;;
18316;SDS011;9284;52.298;21.164;2023-04-03T18:16:26;8.27;;;3.40;;
18316;SDS011;9284;52.298;21.164;2023-04-03T18:18:55;4.73;;;2.80;;
18316;SDS011;9284;52.298;21.164;2023-04-03T18:21:45;7.73;;;3.60;;
18316;SDS011;9284;52.298;21.164;2023-04-03T18:24:14;6.97;;;3.50;;
18316;SDS011;9284;52.298;21.164;2023-04-03T18:26:44;8.43;;;3.80;;
18316;SDS011;9284;52.298;21.164;2023-04-03T18:29:16;8.03;;;3.53;;
18316;SDS011;9284;52.298;21.164;2023-04-03T18:31:46;10.77;;;4.43;;
18316;SDS011;9284;52.298;21.164;2023-04-03T18:34:17;10.00;;;4.17;;
18316;SDS011;9284;52.298;21.164;2023-04-03T18:36:47;9.83;;;4.40;;
18316;SDS011;9284;52.298;21.164;2023-04-03T18:39:16;10.87;;;4.30;;
18316;SDS011;9284;52.298;21.164;2023-04-03T18:41:45;10.53;;;4.17;;
18316;SDS011;9284;52.298;21.164;2023-04-03T18:44:14;10.50;;;5.20;;
18316;SDS011;9284;52.298;21.164;2023-04-03T18:46:44;13.97;;;5.63;;
18316;SDS011;9284;52.298;21.164;2023-04-03T18:49:13;16.50;;;7.30;;